Tiempo atmosférico en la estación meteorológica de Garrucha, Puerto, Almería (12 m.)



Fecha
DESCASC
Temp. máxima en grados centígrados (hora)
DESCASC
Temp. mínima en grados centígrados (hora)
DESCASC
Temp. media en grados centígrados
DESCASC
Racha de viento máxima en m/sg (hora)
DESCASC
Velocidad máxima media en intervalos de 10 minutos(hora)
DESCASC
Precipitaciones diarias en mm
DESCASC
Precipitaciones de 00:00 a 06:00 en mm
DESCASC
Precipitaciones de 06:00 a 12:00 en mm
DESCASC
Precipitaciones de 12:00 a 18:00 en mm
DESCASC
Precipitaciones de 18:00 a 24:00 en mm
DESCASC
15-08-2019 28.3 (19:40) 22.5 (07:40) 25.4 6.94 (15:20) 6.11 (15:40) 0 0 0 0 0
14-08-2019 27.9 (10:40) 23.5 (00:00) 25.7 7.5 (15:40) 6.39 (18:40) 0 0 0 0 0
13-08-2019 27.7 (14:50) 25.6 (00:00) 26.7 11.11 (14:10) 9.17 (14:10) 0 0 0 0 0
12-08-2019 30.6 (11:00) 23.6 (00:00) 27.1 6.39 (14:20) 5.28 (12:10) 0 0 0 0 0
11-08-2019 29.1 (11:30) 24 (00:00) 26.6 7.78 (06:00) 6.67 (06:00) 0 0 0 0 0
10-08-2019 29.6 (14:40) 23.9 (00:00) 26.8 6.67 (10:00) 6.11 (10:00) 0 0 0 0 0
09-08-2019 28.7 (17:10) 23 (00:00) 25.9 8.06 (14:00) 7.22 (14:10) 0 0 0 0 0
08-08-2019 31 (10:00) 24.1 (00:00) 27.6 8.06 (16:40) 7.5 (17:10) 0 0 0 0 0
07-08-2019 28.2 (09:30) 23.3 (00:00) 25.8 8.33 (13:20) 6.94 (13:10) 0 0 0 0 0
06-08-2019 28.2 (10:10) 23.3 (00:00) 25.8 9.72 (17:30) 7.78 (17:20) 0 0 0 0 0
05-08-2019 28.4 (11:50) 24.3 (00:00) 26.3 8.06 (20:30) 7.22 (20:30) 0 0 0 0 0
04-08-2019 27.1 (12:40) 24.8 (00:00) 25.9 9.17 (15:40) 8.06 (15:30) 0 0 0 0 0
03-08-2019 28.5 (12:20) 23.4 (00:00) 25.9 6.67 (23:40) 5.83 (23:40) 0 0 0 0 0
02-08-2019 27.9 (16:20) 23.2 (00:00) 25.6 8.61 (03:10) 6.67 (21:30) 0 0 0 0 0
01-08-2019 28.9 (11:00) 22.7 (00:00) 25.8 8.33 (18:10) 7.5 (18:10) 0 0 0 0 0
31-07-2019 27.3 (12:40) 23.8 (00:00) 25.5 12.22 (21:00) 9.72 (21:00) 0 0 0 0 0
30-07-2019 27.6 (19:20) 22 (00:00) 24.8 8.61 (13:10) 7.5 (13:10) 0 0 0 0 0
29-07-2019 25.9 (09:50) 21 (00:00) 23.4 8.33 (19:00) 7.22 (19:10) 0 0 0 0 0
28-07-2019 30 (00:00) 22.5 (00:00) 26.3 12.22 (00:10) 8.06 (00:10) 0 0 0 0 0
27-07-2019 34.6 (19:40) 23 (00:00) 28.8 15.83 (22:10) 11.94 (14:40) 0 0 0 0 0
26-07-2019 32.6 (23:50) 22.9 (00:00) 27.7 13.89 (18:00) 11.11 (15:50) 0 0 0 0 0
25-07-2019 31.1 (10:30) 23.4 (00:00) 27.3 7.22 (03:50) 5.28 (13:40) 0 0 0 0 0
24-07-2019 31.5 (10:20) 23.9 (00:00) 27.7 5.83 (03:50) 4.72 (15:30) 0 0 0 0 0
23-07-2019 31 (17:10) 24.3 (00:00) 27.6 7.22 (07:30) 5.28 (11:20) 0 0 0 0 0
22-07-2019 29.2 (09:30) 25.1 (00:00) 27.2 10.28 (16:20) 8.61 (16:20) 0 0 0 0 0
21-07-2019 29.3 (10:10) 24.6 (00:00) 26.9 11.39 (01:20) 8.89 (16:30) 0 0 0 0 0
20-07-2019 30 (10:30) 25.1 (00:00) 27.6 11.11 (13:20) 9.17 (13:20) 0 0 0 0 0
19-07-2019 28.8 (13:20) 21.2 (00:00) 25 7.5 (14:20) 5.83 (14:20) 0 0 0 0 0

Gráficas

Temp. máximas Temp. mínimas Temp. medias Precipitaciones Rachas de viento máximas Velocidades máximas media en intervalos de 10 minutos

Datos horarios

Fecha y hora oficial Temperatura (ºC) Velocidad del viento (km/h) Dirección del viento Racha (km/h) Dirección de racha Precipitación (mm) Presión (hPa) Tendencia (hPa) Humedad (%)
2019-08-17 23:00:00 26.2 9 Oeste 11 Oeste 0 -- -- 86
2019-08-17 22:00:00 26.7 0 Calma 9 Nordeste 0 -- -- 87
2019-08-17 21:00:00 26.8 7 Este 10 Este 0 -- -- 86
2019-08-17 20:00:00 27.7 9 Sudeste 13 Sudeste 0 -- -- 84
2019-08-17 19:00:00 27.8 12 Este 14 Este 0 -- -- 84
2019-08-17 18:00:00 27.8 14 Este 18 Este 0 -- -- 84
2019-08-17 17:00:00 27.5 16 Este 23 Este 0 -- -- 85
2019-08-17 16:00:00 27.5 17 Este 22 Este 0 -- -- 85
2019-08-17 15:00:00 27.4 17 Este 21 Este 0 -- -- 84
2019-08-17 14:00:00 27.3 15 Este 20 Este 0 -- -- 86
2019-08-17 13:00:00 27.2 18 Este 23 Este 0 -- -- 86
2019-08-17 12:00:00 27.4 19 Sudeste 22 Sudeste 0 -- -- 78
2019-08-17 11:00:00 27.9 8 Este 10 Este 0 -- -- 73
2019-08-17 10:00:00 27.3 7 Noroeste 15 Noroeste 0 -- -- 66
2019-08-17 09:00:00 24 11 Noroeste 18 Noroeste 0 -- -- 78
2019-08-17 08:00:00 22.5 9 Oeste 16 Oeste 0 -- -- 86
2019-08-17 07:00:00 22.9 11 Oeste 14 Oeste 0 -- -- 87
2019-08-17 06:00:00 23 10 Noroeste 12 Oeste 0 -- -- 88
2019-08-17 05:00:00 23.7 8 Oeste 12 Oeste 0 -- -- 87
2019-08-17 04:00:00 24.5 8 Oeste 11 Oeste 0 -- -- 85
2019-08-17 03:00:00 24.8 7 Oeste 9 Oeste 0 -- -- 88
2019-08-17 02:00:00 25.3 3 Oeste 7 Noroeste 0 -- -- 88
2019-08-17 01:00:00 25.6 4 Noroeste 8 Oeste 0 -- -- 88
2019-08-17 00:00:00 25.7 6 Oeste 8 Oeste 0 -- -- 88
2019-08-16 23:00:00 26 4 Norte 8 Nordeste 0 -- -- 87
2019-08-16 22:00:00 26.3 5 Nordeste 9 Nordeste 0 -- -- 87
2019-08-16 21:00:00 26.6 6 Nordeste 14 Este 0 -- -- 86
2019-08-16 20:00:00 27.2 12 Este 18 Este 0 -- -- 85
2019-08-16 19:00:00 27.2 15 Este 18 Este 0 -- -- 85
2019-08-16 18:00:00 27 16 Este 20 Este 0 -- -- 86
2019-08-16 17:00:00 27.5 18 Este 21 Sudeste 0 -- -- 84
2019-08-16 16:00:00 27.5 18 Sudeste 22 Sudeste 0 -- -- 83
2019-08-16 15:00:00 27.6 17 Este 22 Este 0 -- -- 81
2019-08-16 14:00:00 27.3 17 Este 20 Este 0 -- -- 79
2019-08-16 13:00:00 28.3 15 Este 19 Este 0 -- -- 74
2019-08-16 12:00:00 28.2 15 Nordeste 19 Nordeste 0 -- -- 71
2019-08-16 11:00:00 29 9 Nordeste 13 Nordeste 0 -- -- 60
2019-08-16 10:00:00 26.6 6 Noroeste 14 Noroeste 0 -- -- 59
2019-08-16 09:00:00 24.1 10 Oeste 16 Oeste 0 -- -- 66
2019-08-16 08:00:00 23.2 11 Oeste 18 Noroeste 0 -- -- 68
2019-08-16 07:00:00 21.8 13 Noroeste 18 Noroeste 0 -- -- 75
2019-08-16 06:00:00 23.6 10 Oeste 15 Oeste 0 -- -- 73
2019-08-16 05:00:00 24 11 Noroeste 17 Oeste 0 -- -- 73
2019-08-16 04:00:00 23.5 10 Oeste 14 Oeste 0 -- -- 79
2019-08-16 03:00:00 23.5 9 Noroeste 14 Noroeste 0 -- -- 85
2019-08-16 02:00:00 24.4 8 Oeste 14 Oeste 0 -- -- 87
2019-08-16 01:00:00 24.9 7 Oeste 9 Oeste 0 -- -- 85
2019-08-16 00:00:00 26 7 Norte 14 Nordeste 0 -- -- 83
2019-08-15 23:00:00 26.4 7 Norte 12 Norte 0 -- -- 86
2019-08-15 22:00:00 26.5 8 Nordeste 14 Nordeste 0 -- -- 84
2019-08-15 21:00:00 26.9 12 Nordeste 18 Nordeste 0 -- -- 83
2019-08-15 20:00:00 28.3 13 Nordeste 18 Este 0 -- -- 78
2019-08-15 19:00:00 27.5 17 Este 23 Este 0 -- -- 80
2019-08-15 18:00:00 27 21 Este 23 Este 0 -- -- 82
2019-08-15 17:00:00 27.2 18 Este 24 Este 0 -- -- 83
2019-08-15 16:00:00 27.1 22 Este 25 Este 0 -- -- 85
2019-08-15 15:00:00 27 21 Este 23 Este 0 -- -- 85
2019-08-15 14:00:00 26.7 21 Este 24 Este 0 -- -- 85
2019-08-15 13:00:00 26.2 19 Este 22 Este 0 -- -- 84
2019-08-15 12:00:00 27.5 15 Este 18 Este 0 -- -- 81
2019-08-15 11:00:00 28 11 Nordeste 13 Nordeste 0 -- -- 78
2019-08-15 10:00:00 25.9 5 Noroeste 15 Noroeste 0 -- -- 82
2019-08-15 09:00:00 24 11 Noroeste 14 Noroeste 0 -- -- 86
2019-08-15 08:00:00 23 9 Oeste 12 Oeste 0 -- -- 89
2019-08-15 07:00:00 23 0 Calma 13 Oeste 0 -- -- 90
2019-08-15 06:00:00 23.1 8 Noroeste 13 Oeste 0 -- -- 90
2019-08-15 05:00:00 23.7 8 Noroeste 12 Oeste 0 -- -- 90
2019-08-15 04:00:00 23.4 8 Oeste 11 Oeste 0 -- -- 89
2019-08-15 03:00:00 24.2 4 Oeste 8 Oeste 0 -- -- 89
2019-08-15 02:00:00 25 2 Noroeste 6 Nordeste 0 -- -- 88
2019-08-15 01:00:00 25.5 3 Nordeste 7 Nordeste 0 -- -- 87
2019-08-15 00:00:00 25.6 4 Este 6 Este 0 -- -- 87
2019-08-14 23:00:00 25.7 0 Calma 5 Nordeste 0 -- -- 87
2019-08-14 22:00:00 25.7 3 Nordeste 10 Este 0 -- -- 86
2019-08-14 21:00:00 26 8 Este 19 Este 0 -- -- 86
2019-08-14 20:00:00 26.3 17 Este 23 Este 0 -- -- 84
2019-08-14 19:00:00 26.6 22 Sudeste 27 Sudeste 0 -- -- 83
2019-08-14 18:00:00 26.7 23 Este 26 Este 0 -- -- 82
2019-08-14 17:00:00 26.8 21 Sudeste 27 Este 0 -- -- 81
2019-08-14 16:00:00 26.6 22 Sudeste 27 Sudeste 0 -- -- 80
2019-08-14 15:00:00 26.6 21 Sudeste 26 Este 0 -- -- 82
2019-08-14 14:00:00 26.7 21 Este 24 Sudeste 0 -- -- 81
2019-08-14 13:00:00 26.8 17 Este 21 Este 0 -- -- 80
2019-08-14 12:00:00 26.7 13 Este 15 Este 0 -- -- 78
2019-08-14 11:00:00 26.6 8 Este 10 Este 0 -- -- 76
2019-08-14 10:00:00 26.3 6 Norte 9 Nordeste 0 -- -- 77
2019-08-14 09:00:00 24.6 6 Noroeste 11 Noroeste 0 -- -- 80
2019-08-14 08:00:00 23.7 8 Noroeste 12 Noroeste 0 -- -- 83
2019-08-14 07:00:00 23.6 7 Noroeste 11 Noroeste 0 -- -- 84
2019-08-14 06:00:00 24 7 Noroeste 9 Noroeste 0 -- -- 84
2019-08-14 05:00:00 24.2 8 Noroeste 10 Oeste 0 -- -- 83
2019-08-14 04:00:00 24.8 6 Noroeste 15 Nordeste 0 -- -- 81
2019-08-14 03:00:00 25.5 11 Nordeste 18 Nordeste 0 -- -- 82
2019-08-14 02:00:00 25.7 13 Nordeste 20 Nordeste 0 -- -- 82
2019-08-14 01:00:00 25.7 14 Nordeste 21 Nordeste 0 -- -- 81
2019-08-14 00:00:00 25.9 15 Nordeste 20 Nordeste 0 -- -- 80
2019-08-13 23:00:00 25.9 16 Nordeste 20 Nordeste 0 -- -- 82
2019-08-13 22:00:00 26.2 17 Este 19 Este 0 -- -- 82
2019-08-13 21:00:00 26.2 16 Nordeste 23 Nordeste 0 -- -- 82
2019-08-13 20:00:00 26.7 20 Este 26 Este 0 -- -- 82
2019-08-13 19:00:00 26.9 24 Este 31 Este 0 -- -- 80
2019-08-13 18:00:00 27.2 26 Este 34 Este 0 -- -- 78
2019-08-13 17:00:00 27.5 29 Nordeste 36 Nordeste 0 -- -- 79
2019-08-13 16:00:00 27.4 30 Nordeste 37 Nordeste 0 -- -- 80
2019-08-13 15:00:00 27.6 30 Nordeste 40 Nordeste 0 -- -- 80
2019-08-13 14:00:00 27.4 31 Nordeste 36 Nordeste 0 -- -- 82
2019-08-13 13:00:00 27.5 30 Nordeste 37 Nordeste 0 -- -- 81
2019-08-13 12:00:00 27.4 22 Nordeste 35 Nordeste 0 -- -- 78
2019-08-13 11:00:00 27.3 23 Nordeste 33 Nordeste 0 -- -- 76
2019-08-13 10:00:00 27.1 24 Nordeste 32 Nordeste 0 -- -- 72
2019-08-13 09:00:00 26.6 18 Norte 30 Nordeste 0 -- -- 71
2019-08-13 08:00:00 26.4 18 Norte 31 Nordeste 0 -- -- 75
2019-08-13 07:00:00 25.9 10 Norte 21 Noroeste 0 -- -- 79
2019-08-13 06:00:00 25.8 10 Norte 18 Norte 0 -- -- 81
2019-08-13 05:00:00 25.7 11 Norte 15 Norte 0 -- -- 82
2019-08-13 04:00:00 26 10 Noroeste 19 Norte 0 -- -- 82
2019-08-13 03:00:00 26.4 10 Norte 19 Norte 0 -- -- 85
2019-08-13 02:00:00 26.4 11 Nordeste 15 Norte 0 -- -- 90
2019-08-13 01:00:00 26.4 11 Nordeste 15 Nordeste 0 -- -- 91
2019-08-13 00:00:00 26.5 12 Este 19 Este 0 -- -- 91
2019-08-12 23:00:00 26.5 10 Nordeste 13 Nordeste 0 -- -- 89
2019-08-12 22:00:00 26.6 11 Nordeste 16 Nordeste 0 -- -- 88
2019-08-12 21:00:00 26.9 14 Este 22 Este 0 -- -- 87
2019-08-12 20:00:00 27.8 19 Este 22 Este 0 -- -- 82
2019-08-12 19:00:00 29 12 Nordeste 18 Este 0 -- -- 76
2019-08-12 18:00:00 28.1 15 Este 18 Este 0 -- -- 78
2019-08-12 17:00:00 28 3 Este 14 Sudeste 0 -- -- 72
2019-08-12 16:00:00 27.5 11 Sudeste 22 Sudeste 0 -- -- 73
2019-08-12 15:00:00 27.9 17 Sudeste 23 Sudeste 0 -- -- 64
2019-08-12 14:00:00 27.6 15 Sudeste 18 Sudeste 0 -- -- 68
2019-08-12 13:00:00 27.9 13 Sudeste 22 Sudeste 0 -- -- 64
2019-08-12 12:00:00 27.5 18 Sudeste 22 Sudeste 0 -- -- 75
2019-08-12 11:00:00 30.6 9 Nordeste 18 Norte 0 -- -- 47
2019-08-12 10:00:00 29.2 13 Norte 21 Norte 0 -- -- 42
2019-08-12 09:00:00 26.8 10 Oeste 18 Oeste 0 -- -- 36
2019-08-12 08:00:00 25 9 Noroeste 15 Oeste 0 -- -- 51
2019-08-12 07:00:00 24.2 9 Sudoeste 14 Sur 0 -- -- 74
2019-08-12 06:00:00 24.5 3 Noroeste 10 Sur 0 -- -- 73
2019-08-12 05:00:00 24.3 8 Sudoeste 15 Sudoeste 0 -- -- 77
2019-08-12 04:00:00 24.9 3 Oeste 12 Sudoeste 0 -- -- 79
2019-08-12 03:00:00 25.1 5 Noroeste 12 Oeste 0 -- -- 82
2019-08-12 02:00:00 25.4 9 Oeste 13 Oeste 0 -- -- 83
2019-08-12 01:00:00 25.8 8 Noroeste 13 Noroeste 0 -- -- 84
2019-08-12 00:00:00 25.9 8 Oeste 12 Noroeste 0 -- -- 81
2019-08-11 23:00:00 26.1 3 Noroeste 6 Nordeste 0 -- -- 80
2019-08-11 22:00:00 26.1 0 Calma 16 Nordeste 0 -- -- 82
2019-08-11 21:00:00 27 13 Nordeste 20 Este 0 -- -- 84
2019-08-11 20:00:00 27.3 16 Este 20 Este 0 -- -- 82
2019-08-11 19:00:00 27.5 16 Este 18 Nordeste 0 -- -- 80
2019-08-11 18:00:00 28.3 13 Nordeste 16 Nordeste 0 -- -- 77
2019-08-11 17:00:00 27 14 Sudeste 24 Sudeste 0 -- -- 81
2019-08-11 16:00:00 26.2 23 Sudeste 27 Sudeste 0 -- -- 89
2019-08-11 15:00:00 25.8 24 Sur 27 Sur 0 -- -- 90
2019-08-11 14:00:00 26.6 18 Sudeste 21 Sudeste 0 -- -- 90
2019-08-11 13:00:00 27.8 13 Sudeste 19 Este 0 -- -- 86
2019-08-11 12:00:00 28 16 Este 19 Este 0 -- -- 85
2019-08-11 11:00:00 28.6 6 Este 9 Este 0 -- -- 78
2019-08-11 10:00:00 27.4 7 Noroeste 14 Oeste 0 -- -- 78
2019-08-11 09:00:00 24.8 9 Noroeste 11 Oeste 0 -- -- 79
2019-08-11 08:00:00 24 8 Oeste 15 Oeste 0 -- -- 81
2019-08-11 07:00:00 25.6 7 Sudeste 23 Sur 0 -- -- 91
2019-08-11 06:00:00 25.9 24 Sur 28 Sur 0 -- -- 90
2019-08-11 05:00:00 25.7 5 Oeste 13 Oeste 0 -- -- 65
2019-08-11 04:00:00 25.7 4 Noroeste 18 Oeste 0 -- -- 71
2019-08-11 03:00:00 25.5 12 Oeste 15 Oeste 0 -- -- 69
2019-08-11 02:00:00 25.3 8 Noroeste 10 Noroeste 0 -- -- 81
2019-08-11 01:00:00 26.1 0 Calma 9 Sur 0 -- -- 91
2019-08-11 00:00:00 25.6 2 Sudoeste 14 Sur 0 -- -- 93
2019-08-10 23:00:00 25.7 14 Sur 15 Sur 0 -- -- 92
2019-08-10 22:00:00 26.8 6 Sur 9 Sudeste 0 -- -- 89
2019-08-10 21:00:00 26.9 8 Sur 9 Este 0 -- -- 90
2019-08-10 20:00:00 28 9 Este 17 Este 0 -- -- 85
2019-08-10 19:00:00 29.2 16 Este 20 Nordeste 0 -- -- 76
2019-08-10 18:00:00 29.1 16 Nordeste 21 Nordeste 0 -- -- 76
2019-08-10 17:00:00 28.3 13 Este 21 Sudeste 0 -- -- 77
2019-08-10 16:00:00 27.8 17 Sudeste 22 Sudeste 0 -- -- 83
2019-08-10 15:00:00 28.5 18 Sudeste 22 Sudeste 0 -- -- 77
2019-08-10 14:00:00 28.4 17 Sudeste 19 Sudeste 0 -- -- 73
2019-08-10 13:00:00 27 16 Sudeste 18 Sur 0 -- -- 84
2019-08-10 12:00:00 27.1 12 Sudeste 15 Sudeste 0 -- -- 84
2019-08-10 11:00:00 26.8 12 Sudeste 22 Sur 0 -- -- 83
2019-08-10 10:00:00 26.5 22 Sur 24 Sur 0 -- -- 82
2019-08-10 09:00:00 27.4 8 Noroeste 16 Oeste 0 -- -- 50
2019-08-10 08:00:00 24.7 7 Noroeste 12 Oeste 0 -- -- 66
2019-08-10 07:00:00 24 6 Oeste 21 Sur 0 -- -- 70
2019-08-10 06:00:00 25.8 19 Sur 23 Sur 0 -- -- 81
2019-08-10 05:00:00 24.5 10 Noroeste 15 Oeste 0 -- -- 75
2019-08-10 04:00:00 24.2 4 Noroeste 13 Oeste 0 -- -- 85
2019-08-10 03:00:00 24.6 10 Noroeste 13 Noroeste 0 -- -- 87
2019-08-10 02:00:00 24.9 11 Noroeste 14 Noroeste 0 -- -- 87
2019-08-10 01:00:00 26 8 Este 12 Sudeste 0 -- -- 85
2019-08-10 00:00:00 26.3 3 Sudeste 9 Este 0 -- -- 86
2019-08-09 23:00:00 26.4 8 Este 13 Nordeste 0 -- -- 87
2019-08-09 22:00:00 26.7 8 Nordeste 12 Nordeste 0 -- -- 86
2019-08-09 21:00:00 26.9 3 Nordeste 12 Nordeste 0 -- -- 83
2019-08-09 20:00:00 27.9 8 Nordeste 26 Nordeste 0 -- -- 79
2019-08-09 19:00:00 27.8 17 Nordeste 27 Nordeste 0 -- -- 81
2019-08-09 18:00:00 28.1 22 Nordeste 26 Nordeste 0 -- -- 77
2019-08-09 17:00:00 28.6 15 Nordeste 24 Nordeste 0 -- -- 75
2019-08-09 16:00:00 27.7 18 Nordeste 27 Este 0 -- -- 81
2019-08-09 15:00:00 26.1 19 Este 29 Sudeste 0 -- -- 85
2019-08-09 14:00:00 25.8 25 Sudeste 29 Sudeste 0 -- -- 88
2019-08-09 13:00:00 27 13 Este 15 Sudeste 0 -- -- 81
2019-08-09 12:00:00 26.1 17 Sudeste 23 Sudeste 0 -- -- 85
2019-08-09 11:00:00 26 18 Sudeste 21 Sur 0 -- -- 73
2019-08-09 10:00:00 28.1 3 Este 9 Este 0 -- -- 51
2019-08-09 09:00:00 24.9 7 Noroeste 17 Oeste 0 -- -- 49
2019-08-09 08:00:00 23.3 8 Oeste 15 Noroeste 0 -- -- 55
2019-08-09 07:00:00 23.9 4 Oeste 12 Noroeste 0 -- -- 53
2019-08-09 06:00:00 23.8 7 Sur 13 Oeste 0 -- -- 57
2019-08-09 05:00:00 24.1 4 Oeste 9 Oeste 0 -- -- 59
2019-08-09 04:00:00 24.8 4 Oeste 12 Noroeste 0 -- -- 58
2019-08-09 03:00:00 24.2 8 Noroeste 12 Oeste 0 -- -- 64
2019-08-09 02:00:00 24.9 5 Noroeste 9 Noroeste 0 -- -- 64
2019-08-09 01:00:00 25.3 2 Norte 5 Noroeste 0 -- -- 70
2019-08-09 00:00:00 25.8 4 Sur 6 Sur 0 -- -- 72
2019-08-08 23:00:00 26.1 6 Sur 9 Sudeste 0 -- -- 78
2019-08-08 22:00:00 26.8 3 Nordeste 12 Nordeste 0 -- -- 77
2019-08-08 21:00:00 27.3 12 Nordeste 25 Este 0 -- -- 72
2019-08-08 20:00:00 27.4 19 Sudeste 25 Sudeste 0 -- -- 75
2019-08-08 19:00:00 27.8 21 Sudeste 28 Sudeste 0 -- -- 70
2019-08-08 18:00:00 27.8 26 Sudeste 29 Sudeste 0 -- -- 71
2019-08-08 17:00:00 27.8 26 Sudeste 29 Sur 0 -- -- 71
2019-08-08 16:00:00 27.6 24 Sur 26 Sur 0 -- -- 78
2019-08-08 15:00:00 28 19 Sudeste 22 Sudeste 0 -- -- 73
2019-08-08 14:00:00 28.1 15 Sudeste 17 Sudeste 0 -- -- 72
2019-08-08 13:00:00 27.7 12 Sudeste 15 Sudeste 0 -- -- 81
2019-08-08 12:00:00 27.5 12 Sudeste 14 Sudeste 0 -- -- 77
2019-08-08 11:00:00 28.1 6 Este 12 Este 0 -- -- 58
2019-08-08 10:00:00 31 0 Calma 8 Oeste 0 -- -- 40
2019-08-08 09:00:00 26.3 2 Oeste 9 Oeste 0 -- -- 52
2019-08-08 08:00:00 24.5 6 Oeste 9 Oeste 0 -- -- 55
2019-08-08 07:00:00 24.4 3 Oeste 8 Sudoeste 0 -- -- 54
2019-08-08 06:00:00 24.9 0 Calma 14 Oeste 0 -- -- 52
2019-08-08 05:00:00 25.7 7 Oeste 10 Oeste 0 -- -- 63
2019-08-08 04:00:00 24.7 6 Noroeste 11 Oeste 0 -- -- 70
2019-08-08 03:00:00 25.5 5 Oeste 11 Sudoeste 0 -- -- 81
2019-08-08 02:00:00 26 5 Noroeste 8 Noroeste 0 -- -- 76
2019-08-08 01:00:00 26.2 7 Noroeste 10 Noroeste 0 -- -- 76
2019-08-08 00:00:00 25.7 2 Noroeste 13 Noroeste 0 -- -- 85
2019-08-07 23:00:00 25.9 4 Noroeste 10 Sudeste 0 -- -- 89
2019-08-07 22:00:00 26.1 6 Este 8 Sudeste 0 -- -- 89
2019-08-07 21:00:00 26.1 7 Sudeste 10 Sudeste 0 -- -- 89
2019-08-07 20:00:00 26.4 2 Sur 8 Sur 0 -- -- 87
2019-08-07 19:00:00 27.1 5 Sudeste 10 Este 0 -- -- 85
2019-08-07 18:00:00 28.1 7 Nordeste 10 Este 0 -- -- 79
2019-08-07 17:00:00 27.5 5 Este 12 Este 0 -- -- 81
2019-08-07 16:00:00 26.7 9 Este 19 Sudeste 0 -- -- 84
2019-08-07 15:00:00 26.9 13 Sudeste 20 Sudeste 0 -- -- 85
2019-08-07 14:00:00 26.4 19 Sudeste 30 Sudeste 0 -- -- 83
2019-08-07 13:00:00 26.5 21 Sudeste 24 Sudeste 0 -- -- 82
2019-08-07 12:00:00 26.6 12 Sudeste 15 Sudeste 0 -- -- 82
2019-08-07 11:00:00 26 15 Sudeste 27 Sur 0 -- -- 85
2019-08-07 10:00:00 26.7 13 Sur 21 Sur 0 -- -- 78
2019-08-07 09:00:00 26.8 3 Norte 25 Noroeste 0 -- -- 63
2019-08-07 08:00:00 23.5 15 Noroeste 26 Noroeste 0 -- -- 70
2019-08-07 07:00:00 24.2 13 Oeste 17 Oeste 0 -- -- 75
2019-08-07 06:00:00 24.4 6 Oeste 12 Noroeste 0 -- -- 80
2019-08-07 05:00:00 24.1 5 Noroeste 14 Noroeste 0 -- -- 81
2019-08-07 04:00:00 25.5 6 Sur 20 Sur 0 -- -- 85
2019-08-07 03:00:00 26.3 9 Sur 14 Sur 0 -- -- 82
2019-08-07 02:00:00 26.2 5 Oeste 10 Oeste 0 -- -- 76
2019-08-07 01:00:00 25.3 5 Oeste 12 Sudeste 0 -- -- 83
2019-08-07 00:00:00 26.6 4 Nordeste 12 Noroeste 0 -- -- 79
2019-08-06 23:00:00 26.2 8 Noroeste 15 Oeste 0 -- -- 79
2019-08-06 22:00:00 26.1 14 Oeste 18 Noroeste 0 -- -- 82
2019-08-06 21:00:00 26.2 6 Oeste 25 Sudeste 0 -- -- 84
2019-08-06 20:00:00 26.8 19 Este 29 Este 0 -- -- 82
2019-08-06 19:00:00 26.7 23 Este 31 Este 0 -- -- 80
2019-08-06 18:00:00 27 27 Sudeste 35 Sudeste 0 -- -- 82
2019-08-06 17:00:00 27 25 Sudeste 31 Sudeste 0 -- -- 79
2019-08-06 16:00:00 27 19 Este 28 Sudeste 0 -- -- 79
2019-08-06 15:00:00 26.4 22 Sudeste 26 Sudeste 0 -- -- 83
2019-08-06 14:00:00 26.7 18 Sudeste 23 Sudeste 0 -- -- 83
2019-08-06 13:00:00 26 23 Sudeste 26 Sudeste 0 -- -- 86
2019-08-06 12:00:00 26.5 17 Sudeste 19 Sudeste 0 -- -- 80
2019-08-06 11:00:00 26.9 11 Este 14 Este 0 -- -- 83
2019-08-06 10:00:00 27.4 2 Noroeste 9 Noroeste 0 -- -- 79
2019-08-06 09:00:00 24.8 7 Noroeste 11 Oeste 0 -- -- 82
2019-08-06 08:00:00 23.8 6 Oeste 10 Sudoeste 0 -- -- 82
2019-08-06 07:00:00 23.9 5 Oeste 6 Oeste 0 -- -- 87
2019-08-06 06:00:00 24.5 0 Calma 9 Sudoeste 0 -- -- 87
2019-08-06 05:00:00 23.9 8 Noroeste 15 Noroeste 0 -- -- 87
2019-08-06 04:00:00 24.2 12 Oeste 16 Oeste 0 -- -- 89
2019-08-06 03:00:00 25.3 5 Sudoeste 13 Noroeste 0 -- -- 86
2019-08-06 02:00:00 25.1 11 Oeste 16 Oeste 0 -- -- 85
2019-08-06 01:00:00 25.6 7 Oeste 9 Oeste 0 -- -- 85
2019-08-06 00:00:00 26.2 8 Sudoeste 23 Sudeste 0 -- -- 83
2019-08-05 23:00:00 26 18 Sudeste 21 Sudeste 0 -- -- 91
2019-08-05 22:00:00 26.2 19 Sudeste 25 Sudeste 0 -- -- 87
2019-08-05 21:00:00 26.1 24 Sudeste 29 Sudeste 0 -- -- 88
2019-08-05 20:00:00 26.6 19 Sudeste 21 Sudeste 0 -- -- 87
2019-08-05 19:00:00 27 18 Sudeste 22 Sudeste 0 -- -- 84
2019-08-05 18:00:00 27.1 20 Sudeste 25 Sudeste 0 -- -- 84
2019-08-05 17:00:00 27 23 Sudeste 27 Sudeste 0 -- -- 83
2019-08-05 16:00:00 27 21 Sudeste 24 Este 0 -- -- 81
2019-08-05 15:00:00 26.9 21 Este 24 Este 0 -- -- 81
2019-08-05 14:00:00 27.6 20 Este 23 Este 0 -- -- 79
2019-08-05 13:00:00 28 20 Nordeste 24 Nordeste 0 -- -- 81
2019-08-05 12:00:00 28.3 12 Nordeste 17 Nordeste 0 -- -- 78
2019-08-05 11:00:00 27.9 10 Nordeste 15 Norte 0 -- -- 81
2019-08-05 10:00:00 28 6 Nordeste 10 Nordeste 0 -- -- 78
2019-08-05 09:00:00 25.7 7 Noroeste 10 Sudoeste 0 -- -- 83
2019-08-05 08:00:00 24.6 4 Oeste 18 Este 0 -- -- 84
2019-08-05 07:00:00 25.7 15 Sudeste 26 Sur 0 -- -- 88
2019-08-05 06:00:00 25.8 3 Nordeste 12 Noroeste 0 -- -- 82
2019-08-05 05:00:00 25.4 5 Noroeste 18 Oeste 0 -- -- 84
2019-08-05 04:00:00 25 9 Oeste 15 Noroeste 0 -- -- 89
2019-08-05 03:00:00 25.1 8 Oeste 17 Oeste 0 -- -- 89
2019-08-05 02:00:00 25.5 8 Oeste 10 Noroeste 0 -- -- 87
2019-08-05 01:00:00 25.8 6 Noroeste 9 Noroeste 0 -- -- 85
2019-08-05 00:00:00 25.8 0 Calma 22 Sudeste 0 -- -- 88
2019-08-04 23:00:00 25.9 17 Sudeste 20 Sudeste 0 -- -- 89
2019-08-04 22:00:00 26.1 11 Este 17 Este 0 -- -- 89
2019-08-04 21:00:00 26.1 12 Este 16 Este 0 -- -- 88
2019-08-04 20:00:00 26.5 14 Este 21 Sudeste 0 -- -- 86
2019-08-04 19:00:00 26.3 20 Sudeste 23 Sudeste 0 -- -- 86
2019-08-04 18:00:00 26.6 20 Sudeste 25 Sudeste 0 -- -- 85
2019-08-04 17:00:00 26.4 21 Sudeste 31 Sudeste 0 -- -- 85
2019-08-04 16:00:00 26.4 28 Sudeste 33 Sudeste 0 -- -- 86
2019-08-04 15:00:00 26.3 26 Sudeste 30 Sudeste 0 -- -- 86
2019-08-04 14:00:00 26.5 21 Sudeste 23 Sudeste 0 -- -- 84
2019-08-04 13:00:00 26.6 16 Sudeste 19 Sudeste 0 -- -- 83
2019-08-04 12:00:00 26.6 15 Sudeste 19 Sudeste 0 -- -- 85
2019-08-04 11:00:00 26.6 13 Sudeste 15 Sudeste 0 -- -- 80
2019-08-04 10:00:00 26 11 Sudeste 15 Sur 0 -- -- 90
2019-08-04 09:00:00 26.4 11 Sur 29 Sur 0 -- -- 88
2019-08-04 08:00:00 25.5 27 Sur 31 Sur 0 -- -- 94
2019-08-04 07:00:00 25.4 25 Sudeste 29 Sudeste 0 -- -- 93
2019-08-04 06:00:00 25.3 5 Sur 17 Noroeste 0 -- -- 88
2019-08-04 05:00:00 25.1 12 Noroeste 15 Noroeste 0 -- -- 89
2019-08-04 04:00:00 25.1 9 Noroeste 13 Oeste 0 -- -- 91
2019-08-04 03:00:00 25.2 8 Noroeste 14 Norte 0 -- -- 92
2019-08-04 02:00:00 25.7 4 Sudeste 15 Sur 0 -- -- 92
2019-08-04 01:00:00 25.5 13 Sur 21 Sudeste 0 -- -- 93
2019-08-04 00:00:00 25.6 19 Sudeste 24 Sudeste 0 -- -- 93
2019-08-03 23:00:00 25.6 15 Sudeste 18 Sudeste 0 -- -- 92
2019-08-03 22:00:00 25.7 10 Sudeste 12 Sudeste 0 -- -- 92
2019-08-03 21:00:00 26 5 Este 10 Nordeste 0 -- -- 89
2019-08-03 20:00:00 27.6 8 Nordeste 14 Nordeste 0 -- -- 85
2019-08-03 19:00:00 26.7 11 Este 15 Este 0 -- -- 86
2019-08-03 18:00:00 27 13 Este 19 Este 0 -- -- 85
2019-08-03 17:00:00 27 17 Este 20 Este 0 -- -- 86
2019-08-03 16:00:00 27.1 18 Este 22 Este 0 -- -- 86
2019-08-03 15:00:00 26.5 17 Sudeste 20 Sudeste 0 -- -- 86
2019-08-03 14:00:00 27.1 13 Sudeste 15 Este 0 -- -- 83
2019-08-03 13:00:00 27.7 12 Este 14 Este 0 -- -- 78
2019-08-03 12:00:00 28 5 Este 8 Este 0 -- -- 75
2019-08-03 11:00:00 28.1 7 Nordeste 10 Nordeste 0 -- -- 76
2019-08-03 10:00:00 26.4 6 Norte 11 Noroeste 0 -- -- 80
2019-08-03 09:00:00 24.3 9 Noroeste 13 Noroeste 0 -- -- 80
2019-08-03 08:00:00 23.7 5 Sudoeste 8 Sudoeste 0 -- -- 82
2019-08-03 07:00:00 23.5 4 Oeste 9 Oeste 0 -- -- 83
2019-08-03 06:00:00 23.9 3 Sudoeste 14 Oeste 0 -- -- 82
2019-08-03 05:00:00 23.9 9 Oeste 12 Oeste 0 -- -- 86
2019-08-03 04:00:00 24.3 7 Noroeste 8 Noroeste 0 -- -- 85
2019-08-03 03:00:00 24.7 4 Noroeste 8 Noroeste 0 -- -- 85
2019-08-03 02:00:00 25 6 Noroeste 12 Oeste 0 -- -- 85
2019-08-03 01:00:00 24.9 7 Noroeste 10 Noroeste 0 -- -- 88
2019-08-03 00:00:00 25.2 7 Sudeste 15 Sudeste 0 -- -- 90
2019-08-02 23:00:00 25.2 15 Sudeste 23 Sudeste 0 -- -- 90
2019-08-02 22:00:00 25.4 20 Sudeste 28 Sudeste 0 -- -- 88
2019-08-02 21:00:00 25.8 16 Este 20 Este 0 -- -- 89
2019-08-02 20:00:00 26.1 11 Sudeste 16 Sudeste 0 -- -- 87
2019-08-02 19:00:00 26.1 14 Sudeste 18 Sudeste 0 -- -- 86
2019-08-02 18:00:00 26.5 13 Este 15 Este 0 -- -- 83
2019-08-02 17:00:00 27.2 13 Este 15 Este 0 -- -- 80
2019-08-02 16:00:00 27.6 7 Nordeste 14 Sudeste 0 -- -- 80
2019-08-02 15:00:00 25.9 11 Sudeste 22 Sudeste 0 -- -- 87
2019-08-02 14:00:00 25.3 18 Sudeste 20 Sudeste 0 -- -- 88
2019-08-02 13:00:00 25.9 13 Este 20 Este 0 -- -- 88
2019-08-02 12:00:00 25.2 15 Este 20 Sudeste 0 -- -- 89
2019-08-02 11:00:00 25.1 17 Sudeste 21 Sudeste 0 -- -- 89
2019-08-02 10:00:00 25.6 8 Sudeste 9 Sudeste 0 -- -- 83
2019-08-02 09:00:00 25.4 2 Noroeste 14 Oeste 0 -- -- 85
2019-08-02 08:00:00 23.2 10 Noroeste 14 Oeste 0 -- -- 86
2019-08-02 07:00:00 24 3 Oeste 10 Sudoeste 0 -- -- 88
2019-08-02 06:00:00 23.4 8 Sudoeste 15 Oeste 0 -- -- 90
2019-08-02 05:00:00 23.9 9 Noroeste 14 Noroeste 0 -- -- 90
2019-08-02 04:00:00 24.6 7 Sudeste 31 Sur 0 -- -- 91
2019-08-02 03:00:00 24.7 22 Sur 30 Sur 0 -- -- 90
2019-08-02 02:00:00 24.6 5 Oeste 18 Oeste 0 -- -- 89
2019-08-02 01:00:00 24.3 13 Noroeste 20 Noroeste 0 -- -- 89
2019-08-02 00:00:00 24.7 10 Sur 25 Sur 0 -- -- 89
2019-08-01 23:00:00 24.8 23 Sur 27 Sur 0 -- -- 91
2019-08-01 22:00:00 25 19 Sudeste 24 Sudeste 0 -- -- 91
2019-08-01 21:00:00 25.1 21 Sudeste 27 Sudeste 0 -- -- 89
2019-08-01 20:00:00 25.2 23 Sudeste 28 Sudeste 0 -- -- 90
2019-08-01 19:00:00 25.5 24 Sudeste 30 Sudeste 0 -- -- 88
2019-08-01 18:00:00 25.7 26 Sudeste 29 Sudeste 0 -- -- 86
2019-08-01 17:00:00 25.8 22 Sudeste 27 Sudeste 0 -- -- 83
2019-08-01 16:00:00 26 20 Sudeste 23 Sudeste 0 -- -- 77
2019-08-01 15:00:00 26.5 8 Sudeste 15 Sudeste 0 -- -- 71
2019-08-01 14:00:00 26.2 14 Sudeste 15 Sudeste 0 -- -- 70
2019-08-01 13:00:00 26.3 11 Norte 15 Norte 0 -- -- 65
2019-08-01 12:00:00 26.3 11 Sur 26 Nordeste 0 -- -- 69
2019-08-01 11:00:00 28.9 0 Calma 13 Sudoeste 0 -- -- 51
2019-08-01 10:00:00 26.1 10 Oeste 17 Oeste 0 -- -- 53
2019-08-01 09:00:00 23.9 10 Noroeste 24 Noroeste 0 -- -- 65
2019-08-01 08:00:00 23.1 13 Noroeste 18 Noroeste 0 -- -- 71
2019-08-01 07:00:00 23 14 Noroeste 17 Noroeste 0 -- -- 70
2019-08-01 06:00:00 23 12 Noroeste 19 Noroeste 0 -- -- 71
2019-08-01 05:00:00 24.1 9 Noroeste 17 Noroeste 0 -- -- 68
2019-08-01 04:00:00 24.2 11 Noroeste 18 Noroeste 0 -- -- 71
2019-08-01 03:00:00 25.1 10 Norte 15 Noroeste 0 -- -- 70
2019-08-01 02:00:00 25.4 7 Norte 21 Norte 0 -- -- 74
2019-08-01 01:00:00 25.5 5 Norte 18 Nordeste 0 -- -- 74
2019-08-01 00:00:00 25.9 14 Norte 23 Nordeste 0 -- -- 77
2019-07-31 23:00:00 25.7 20 Nordeste 32 Norte 0 -- -- 82
2019-07-31 22:00:00 25.7 25 Nordeste 40 Nordeste 0 -- -- 84
2019-07-31 21:00:00 25.8 35 Nordeste 44 Este 0 -- -- 82
2019-07-31 20:00:00 26.3 31 Nordeste 41 Nordeste 0 -- -- 82
2019-07-31 19:00:00 26.7 26 Nordeste 40 Nordeste 0 -- -- 80
2019-07-31 18:00:00 26.9 28 Nordeste 43 Nordeste 0 -- -- 79
2019-07-31 17:00:00 27.1 26 Nordeste 35 Nordeste 0 -- -- 80
2019-07-31 16:00:00 27 24 Nordeste 33 Nordeste 0 -- -- 81
2019-07-31 15:00:00 26.7 19 Nordeste 37 Nordeste 0 -- -- 83
2019-07-31 14:00:00 26.8 26 Nordeste 33 Nordeste 0 -- -- 81
2019-07-31 13:00:00 26.9 18 Nordeste 29 Norte 0 -- -- 80
2019-07-31 12:00:00 26.7 13 Norte 29 Nordeste 0 -- -- 77
2019-07-31 11:00:00 26.5 21 Nordeste 31 Norte 0 -- -- 77
2019-07-31 10:00:00 26.2 7 Norte 21 Oeste 0 -- -- 74
2019-07-31 09:00:00 25.8 11 Norte 30 Norte 0 -- -- 75
2019-07-31 08:00:00 25 11 Noroeste 22 Nordeste 0 -- -- 76
2019-07-31 07:00:00 25.3 15 Norte 33 Norte 0 -- -- 81
2019-07-31 06:00:00 25 12 Norte 38 Norte 0 -- -- 76
2019-07-31 05:00:00 24.9 21 Norte 34 Norte 0 -- -- 76
2019-07-31 04:00:00 24.1 10 Noroeste 19 Noroeste 0 -- -- 86
2019-07-31 03:00:00 23.8 8 Noroeste 12 Noroeste 0 -- -- 89
2019-07-31 02:00:00 24.8 4 Noroeste 11 Norte 0 -- -- 88
2019-07-31 01:00:00 25 7 Norte 16 Nordeste 0 -- -- 89
2019-07-31 00:00:00 25.1 8 Norte 15 Norte 0 -- -- 89
2019-07-30 23:00:00 25.4 8 Nordeste 13 Nordeste 0 -- -- 90
2019-07-30 22:00:00 25.4 9 Nordeste 19 Norte 0 -- -- 87
2019-07-30 21:00:00 25.9 10 Nordeste 16 Nordeste 0 -- -- 85
2019-07-30 20:00:00 26.9 9 Norte 14 Nordeste 0 -- -- 80
2019-07-30 19:00:00 27.2 4 Nordeste 9 Nordeste 0 -- -- 78
2019-07-30 18:00:00 25.6 8 Este 15 Este 0 -- -- 83
2019-07-30 17:00:00 25.1 13 Este 17 Este 0 -- -- 85
2019-07-30 16:00:00 25.1 17 Este 19 Este 0 -- -- 86
2019-07-30 15:00:00 25.1 14 Sudeste 21 Sudeste 0 -- -- 87
2019-07-30 14:00:00 25 16 Sudeste 31 Sur 0 -- -- 86
2019-07-30 13:00:00 24.7 25 Sudeste 30 Sur 0 -- -- 85
2019-07-30 12:00:00 24.5 20 Sudeste 21 Sudeste 0 -- -- 82
2019-07-30 11:00:00 25.1 12 Sudeste 13 Sudeste 0 -- -- 83
2019-07-30 10:00:00 25 7 Sudeste 9 Sudeste 0 -- -- 81
2019-07-30 09:00:00 24.7 8 Sudoeste 10 Sudoeste 0 -- -- 73
2019-07-30 08:00:00 22.5 5 Oeste 13 Oeste 0 -- -- 79
2019-07-30 07:00:00 22.1 10 Noroeste 16 Oeste 0 -- -- 82
2019-07-30 06:00:00 22.8 10 Oeste 16 Oeste 0 -- -- 84
2019-07-30 05:00:00 22.4 8 Oeste 11 Oeste 0 -- -- 85
2019-07-30 04:00:00 23.8 6 Sur 15 Sudeste 0 -- -- 86
2019-07-30 03:00:00 24.2 6 Sur 10 Sudeste 0 -- -- 85
2019-07-30 02:00:00 23.5 3 Noroeste 8 Noroeste 0 -- -- 83
2019-07-30 01:00:00 24.2 0 Calma 5 Noroeste 0 -- -- 84
2019-07-30 00:00:00 24.3 0 Calma 7 Oeste 0 -- -- 83
2019-07-29 23:00:00 24.4 3 Noroeste 6 Noroeste 0 -- -- 83
2019-07-29 22:00:00 24.5 3 Nordeste 16 Nordeste 0 -- -- 83
2019-07-29 21:00:00 25.4 12 Nordeste 25 Nordeste 0 -- -- 82
2019-07-29 20:00:00 25.8 20 Nordeste 29 Nordeste 0 -- -- 80
2019-07-29 19:00:00 25.6 25 Nordeste 30 Nordeste 0 -- -- 80
2019-07-29 18:00:00 25.4 23 Este 27 Nordeste 0 -- -- 81
2019-07-29 17:00:00 24.5 22 Este 27 Este 0 -- -- 85
2019-07-29 16:00:00 24 22 Sudeste 26 Sudeste 0 -- -- 88
2019-07-29 15:00:00 24.3 22 Sudeste 27 Sudeste 0 -- -- 88
2019-07-29 14:00:00 23.6 19 Sudeste 22 Sudeste 0 -- -- 89
2019-07-29 13:00:00 23.5 19 Sudeste 22 Sudeste 0 -- -- 90
2019-07-29 12:00:00 23.5 15 Sudeste 18 Sudeste 0 -- -- 90
2019-07-29 11:00:00 24.2 14 Sudeste 17 Sudeste 0 -- -- 85
2019-07-29 10:00:00 25.4 4 Este 9 Noroeste 0 -- -- 76
2019-07-29 09:00:00 23.3 6 Noroeste 12 Oeste 0 -- -- 77
2019-07-29 08:00:00 21.9 8 Oeste 10 Oeste 0 -- -- 83
2019-07-29 07:00:00 21.1 7 Oeste 12 Oeste 0 -- -- 88
2019-07-29 06:00:00 21.6 7 Noroeste 10 Noroeste 0 -- -- 91
2019-07-29 05:00:00 21.6 6 Noroeste 8 Noroeste 0 -- -- 91
2019-07-29 04:00:00 22.7 0 Calma 4 Noroeste 0 -- -- 91
2019-07-29 03:00:00 22 3 Noroeste 9 Sudeste 0 -- -- 92
2019-07-29 02:00:00 22.9 9 Sur 13 Sur 0 -- -- 93
2019-07-29 01:00:00 23.2 7 Sudeste 9 Sur 0 -- -- 90
2019-07-29 00:00:00 23.1 6 Sur 8 Sur 0 -- -- 90
2019-07-28 23:00:00 23.2 6 Sudeste 13 Este 0 -- -- 87
2019-07-28 22:00:00 23.5 10 Este 19 Este 0 -- -- 88
2019-07-28 21:00:00 23.9 17 Este 19 Este 0 -- -- 87
2019-07-28 20:00:00 24.3 15 Sudeste 25 Sudeste 0 -- -- 88
2019-07-28 19:00:00 24.1 22 Sudeste 27 Sudeste 0 -- -- 88
2019-07-28 18:00:00 23.9 24 Sudeste 28 Sudeste 0 -- -- 86
2019-07-28 17:00:00 24 24 Sudeste 31 Sudeste 0 -- -- 87
2019-07-28 16:00:00 23.8 24 Sudeste 27 Sudeste 0 -- -- 86
2019-07-28 15:00:00 24 20 Sudeste 24 Sudeste 0 -- -- 86
2019-07-28 14:00:00 24.2 17 Sudeste 26 Sur 0 -- -- 86
2019-07-28 13:00:00 23.9 22 Sudeste 25 Sur 0 -- -- 87
2019-07-28 12:00:00 23.7 22 Sur 27 Sur 0 -- -- 88
2019-07-28 11:00:00 24 19 Sudeste 23 Sur 0 -- -- 86
2019-07-28 10:00:00 24.9 12 Sudeste 14 Sudeste 0 -- -- 79
2019-07-28 09:00:00 26.1 0 Calma 6 Sur 0 -- -- 64
2019-07-28 08:00:00 24 6 Sur 13 Sur 0 -- -- 79
2019-07-28 07:00:00 22.9 8 Sur 16 Sur 0 -- -- 81
2019-07-28 06:00:00 23.5 9 Sur 14 Sur 0 -- -- 85
2019-07-28 05:00:00 24.1 8 Sur 15 Sudeste 0 -- -- 85
2019-07-28 04:00:00 24.4 14 Sudeste 23 Sur 0 -- -- 81
2019-07-28 03:00:00 25.2 9 Sudeste 14 Sur 0 -- -- 75
2019-07-28 02:00:00 28.8 4 Sudoeste 27 Noroeste 0 -- -- 44
2019-07-28 01:00:00 29 18 Noroeste 44 Noroeste 0 -- -- 44
2019-07-28 00:00:00 30 27 Noroeste 42 Noroeste 0 -- -- 42
2019-07-27 23:00:00 30.5 26 Noroeste 57 Noroeste 0 -- -- 40
2019-07-26 12:00:00 -- -- -- -- -- -- -- -- --
2019-07-26 11:00:00 -- -- -- -- -- -- -- -- --
2019-07-26 10:00:00 26.7 5 Sudeste 7 Noroeste 0 -- -- 81
2019-07-26 09:00:00 25 4 Sudoeste 10 Sudoeste 0 -- -- 83
2019-07-26 08:00:00 23.1 6 Sudoeste 10 Oeste 0 -- -- 87
2019-07-26 07:00:00 22.9 7 Oeste 11 Oeste 0 -- -- 89
2019-07-26 06:00:00 24 3 Sudoeste 8 Sudoeste 0 -- -- 91
2019-07-26 05:00:00 24.2 0 Calma 12 Noroeste 0 -- -- 92
2019-07-26 04:00:00 24.2 9 Noroeste 12 Noroeste 0 -- -- 92
2019-07-26 03:00:00 25.2 4 Norte 9 Sudeste 0 -- -- 88
2019-07-26 02:00:00 25.4 9 Sudeste 14 Sudeste 0 -- -- 91
2019-07-26 01:00:00 25.7 9 Sudeste 11 Sudeste 0 -- -- 89
2019-07-26 00:00:00 25.8 7 Este 10 Este 0 -- -- 88
2019-07-25 23:00:00 26 7 Nordeste 11 Nordeste 0 -- -- 88
2019-07-25 22:00:00 26.3 7 Este 10 Este 0 -- -- 86
2019-07-25 21:00:00 27.2 2 Nordeste 12 Nordeste 0 -- -- 81
2019-07-25 20:00:00 28.4 5 Nordeste 9 Nordeste 0 -- -- 78
2019-07-25 19:00:00 28.9 7 Nordeste 13 Este 0 -- -- 77
2019-07-25 18:00:00 27.3 10 Este 17 Este 0 -- -- 81
2019-07-25 17:00:00 27.5 14 Sudeste 18 Este 0 -- -- 81
2019-07-25 16:00:00 27.7 13 Este 21 Sudeste 0 -- -- 77
2019-07-25 15:00:00 27.3 17 Sudeste 24 Sudeste 0 -- -- 75
2019-07-25 14:00:00 27.3 19 Sudeste 24 Sudeste 0 -- -- 67
2019-07-25 13:00:00 27.8 15 Sudeste 20 Sudeste 0 -- -- 65
2019-07-25 12:00:00 28.2 12 Sudeste 13 Sudeste 0 -- -- 64
2019-07-25 11:00:00 30.2 6 Este 12 Noroeste 0 -- -- 57
2019-07-25 10:00:00 29.4 7 Noroeste 19 Noroeste 0 -- -- 40
2019-07-25 09:00:00 26.4 14 Noroeste 18 Oeste 0 -- -- 52
2019-07-25 08:00:00 24.2 11 Noroeste 17 Noroeste 0 -- -- 56
2019-07-25 07:00:00 24.7 14 Noroeste 19 Oeste 0 -- -- 53
2019-07-25 06:00:00 23.8 15 Noroeste 20 Oeste 0 -- -- 60
2019-07-25 05:00:00 23.6 13 Noroeste 18 Noroeste 0 -- -- 65
2019-07-25 04:00:00 25.2 15 Oeste 26 Noroeste 0 -- -- 67
2019-07-25 03:00:00 24.4 13 Noroeste 16 Oeste 0 -- -- 74
2019-07-25 02:00:00 24.7 8 Noroeste 14 Oeste 0 -- -- 76
2019-07-25 01:00:00 26 4 Oeste 5 Oeste 0 -- -- 79
2019-07-25 00:00:00 26.5 0 Calma 7 Norte 0 -- -- 79
2019-07-24 23:00:00 27 4 Nordeste 8 Nordeste 0 -- -- 78
2019-07-24 22:00:00 27 3 Norte 14 Este 0 -- -- 76
2019-07-24 21:00:00 27.5 4 Nordeste 7 Norte 0 -- -- 75
2019-07-24 20:00:00 29.1 3 Norte 8 Este 0 -- -- 70
2019-07-24 19:00:00 29.2 2 Nordeste 13 Este 0 -- -- 72
2019-07-24 18:00:00 28.8 4 Este 17 Este 0 -- -- 71
2019-07-24 17:00:00 29 3 Nordeste 14 Este 0 -- -- 69
2019-07-24 16:00:00 29.2 6 Este 21 Nordeste 0 -- -- 68
2019-07-24 15:00:00 28.5 6 Este 13 Este 0 -- -- 70
2019-07-24 14:00:00 29.1 4 Este 20 Sudeste 0 -- -- 67
2019-07-24 13:00:00 27.3 10 Sudeste 13 Sudeste 0 -- -- 68
2019-07-24 12:00:00 28.4 12 Este 19 Este 0 -- -- 61
2019-07-24 11:00:00 28.3 12 Este 16 Este 0 -- -- 56
2019-07-24 10:00:00 29.7 9 Noroeste 16 Noroeste 0 -- -- 38
2019-07-24 09:00:00 26.4 9 Noroeste 18 Noroeste 0 -- -- 46
2019-07-24 08:00:00 24.4 13 Noroeste 18 Noroeste 0 -- -- 50
2019-07-24 07:00:00 24.2 14 Noroeste 18 Noroeste 0 -- -- 52
2019-07-24 06:00:00 24.2 15 Noroeste 21 Oeste 0 -- -- 53
2019-07-24 05:00:00 25.4 13 Noroeste 20 Noroeste 0 -- -- 54
2019-07-24 04:00:00 25.6 16 Noroeste 21 Noroeste 0 -- -- 54
2019-07-24 03:00:00 26.2 14 Noroeste 19 Oeste 0 -- -- 57
2019-07-24 02:00:00 26.2 13 Noroeste 21 Oeste 0 -- -- 60
2019-07-24 01:00:00 26.5 12 Noroeste 18 Oeste 0 -- -- 64
2019-07-24 00:00:00 27.9 10 Oeste 14 Oeste 0 -- -- 60
2019-07-23 23:00:00 27.8 6 Oeste 9 Oeste 0 -- -- 65
2019-07-23 22:00:00 27.5 3 Noroeste 8 Norte 0 -- -- 68
2019-07-23 21:00:00 27.6 4 Norte 15 Nordeste 0 -- -- 72
2019-07-23 20:00:00 29.3 9 Nordeste 14 Nordeste 0 -- -- 70
2019-07-23 19:00:00 29.3 11 Este 14 Este 0 -- -- 70
2019-07-23 18:00:00 30.1 6 Este 17 Este 0 -- -- 66
2019-07-23 17:00:00 30.5 2 Sudeste 19 Este 0 -- -- 62
2019-07-23 16:00:00 28.7 6 Nordeste 24 Este 0 -- -- 67
2019-07-23 15:00:00 29.6 3 Sudeste 14 Este 0 -- -- 64
2019-07-23 14:00:00 28 12 Este 23 Este 0 -- -- 65
2019-07-23 13:00:00 28.9 9 Nordeste 18 Nordeste 0 -- -- 58
2019-07-23 12:00:00 29.7 9 Nordeste 21 Este 0 -- -- 57
2019-07-23 11:00:00 29.9 14 Nordeste 24 Norte 0 -- -- 50
2019-07-23 10:00:00 29.1 13 Norte 21 Noroeste 0 -- -- 44
2019-07-23 09:00:00 27.1 14 Noroeste 21 Norte 0 -- -- 48
2019-07-23 08:00:00 24.8 15 Noroeste 26 Oeste 0 -- -- 55
2019-07-23 07:00:00 24.8 13 Noroeste 22 Noroeste 0 -- -- 59
2019-07-23 06:00:00 25.1 13 Noroeste 21 Noroeste 0 -- -- 61
2019-07-23 05:00:00 25.7 12 Norte 24 Norte 0 -- -- 58
2019-07-23 04:00:00 26.1 16 Noroeste 22 Noroeste 0 -- -- 58
2019-07-23 03:00:00 26.4 15 Noroeste 21 Noroeste 0 -- -- 59
2019-07-23 02:00:00 27 12 Noroeste 20 Noroeste 0 -- -- 58
2019-07-23 01:00:00 26.6 14 Noroeste 18 Noroeste 0 -- -- 64
2019-07-23 00:00:00 26 10 Noroeste 13 Oeste 0 -- -- 74
2019-07-22 23:00:00 26.7 9 Norte 22 Nordeste 0 -- -- 81
2019-07-22 22:00:00 26.6 10 Norte 17 Norte 0 -- -- 80
2019-07-22 21:00:00 27.1 13 Norte 28 Nordeste 0 -- -- 77
2019-07-22 20:00:00 27.6 8 Nordeste 17 Nordeste 0 -- -- 80
2019-07-22 19:00:00 28.1 7 Nordeste 15 Nordeste 0 -- -- 78
2019-07-22 18:00:00 28.1 8 Nordeste 28 Nordeste 0 -- -- 79
2019-07-22 17:00:00 27.5 23 Nordeste 37 Nordeste 0 -- -- 80
2019-07-22 16:00:00 27.8 27 Nordeste 32 Este 0 -- -- 78
2019-07-22 15:00:00 28 15 Este 33 Nordeste 0 -- -- 77
2019-07-22 14:00:00 27.6 28 Este 33 Este 0 -- -- 78
2019-07-22 13:00:00 27.8 22 Nordeste 34 Nordeste 0 -- -- 77
2019-07-22 12:00:00 27.9 23 Nordeste 33 Nordeste 0 -- -- 70
2019-07-22 11:00:00 28.1 16 Nordeste 23 Norte 0 -- -- 66
2019-07-22 10:00:00 28.5 6 Nordeste 11 Nordeste 0 -- -- 59
2019-07-22 09:00:00 26.9 3 Oeste 14 Noroeste 0 -- -- 59
2019-07-22 08:00:00 26.4 8 Norte 17 Noroeste 0 -- -- 60
2019-07-22 07:00:00 25.5 12 Noroeste 18 Noroeste 0 -- -- 64
2019-07-22 06:00:00 25.9 14 Noroeste 22 Noroeste 0 -- -- 64
2019-07-22 05:00:00 26.4 15 Norte 22 Noroeste 0 -- -- 64
2019-07-22 04:00:00 26.6 15 Norte 28 Norte 0 -- -- 66
2019-07-22 03:00:00 26.3 9 Norte 13 Noroeste 0 -- -- 69
2019-07-22 02:00:00 26.2 5 Norte 19 Noroeste 0 -- -- 75
2019-07-22 01:00:00 26 12 Noroeste 18 Noroeste 0 -- -- 85
2019-07-22 00:00:00 26.1 15 Noroeste 23 Nordeste 0 -- -- 86
2019-07-21 23:00:00 25.9 17 Nordeste 25 Nordeste 0 -- -- 91
2019-07-21 22:00:00 25.8 13 Este 36 Nordeste 0 -- -- 91
2019-07-21 21:00:00 26.2 29 Nordeste 37 Nordeste 0 -- -- 89
2019-07-21 20:00:00 27.5 5 Nordeste 17 Norte 0 -- -- 84
2019-07-21 19:00:00 27.4 13 Nordeste 26 Nordeste 0 -- -- 83
2019-07-21 18:00:00 27.7 10 Nordeste 32 Nordeste 0 -- -- 82
2019-07-21 17:00:00 27.2 28 Nordeste 40 Nordeste 0 -- -- 84
2019-07-21 16:00:00 27.2 28 Nordeste 39 Nordeste 0 -- -- 83
2019-07-21 15:00:00 27.3 25 Nordeste 37 Nordeste 0 -- -- 83
2019-07-21 14:00:00 27.6 27 Nordeste 35 Nordeste 0 -- -- 81
2019-07-21 13:00:00 27.5 27 Nordeste 34 Nordeste 0 -- -- 81
2019-07-21 12:00:00 27.5 28 Nordeste 35 Nordeste 0 -- -- 78
2019-07-21 11:00:00 28.1 14 Nordeste 22 Nordeste 0 -- -- 70
2019-07-21 10:00:00 28.8 8 Norte 13 Nordeste 0 -- -- 54
2019-07-21 09:00:00 27.2 5 Norte 17 Oeste 0 -- -- 57
2019-07-21 08:00:00 25 11 Noroeste 15 Noroeste 0 -- -- 65
2019-07-21 07:00:00 25.8 7 Oeste 16 Noroeste 0 -- -- 60
2019-07-21 06:00:00 25.6 12 Noroeste 23 Noroeste 0 -- -- 65
2019-07-21 05:00:00 25.6 12 Noroeste 19 Norte 0 -- -- 67
2019-07-21 04:00:00 27.1 13 Norte 25 Norte 0 -- -- 60
2019-07-21 03:00:00 27.3 21 Norte 33 Norte 0 -- -- 64
2019-07-21 02:00:00 27.7 21 Norte 41 Noroeste 0 -- -- 61
2019-07-21 01:00:00 27.8 21 Norte 36 Noroeste 0 -- -- 62
2019-07-21 00:00:00 27.1 14 Noroeste 23 Noroeste 0 -- -- 70
2019-07-20 23:00:00 26.9 9 Oeste 22 Norte 0 -- -- 79
2019-07-20 22:00:00 26.7 13 Norte 25 Nordeste 0 -- -- 83
2019-07-20 21:00:00 26.7 10 Norte 27 Nordeste 0 -- -- 85
2019-07-20 20:00:00 27.4 18 Nordeste 24 Nordeste 0 -- -- 83
2019-07-20 19:00:00 28.3 5 Nordeste 11 Nordeste 0 -- -- 80
2019-07-20 18:00:00 27.9 7 Nordeste 15 Este 0 -- -- 81
2019-07-20 17:00:00 27 13 Este 26 Este 0 -- -- 83
2019-07-20 16:00:00 27.8 14 Este 21 Este 0 -- -- 81
2019-07-20 15:00:00 27.6 13 Nordeste 25 Este 0 -- -- 80
2019-07-20 14:00:00 26.9 19 Este 40 Este 0 -- -- 83
2019-07-20 13:00:00 27.6 26 Este 35 Este 0 -- -- 77
2019-07-20 12:00:00 28.3 13 Nordeste 22 Nordeste 0 -- -- 67
2019-07-20 11:00:00 28.7 15 Nordeste 22 Nordeste 0 -- -- 65
2019-07-20 10:00:00 28.9 11 Norte 22 Norte 0 -- -- 56
2019-07-20 09:00:00 27.8 13 Norte 28 Noroeste 0 -- -- 48
2019-07-20 08:00:00 26.6 14 Norte 29 Noroeste 0 -- -- 49
2019-07-20 07:00:00 25.8 17 Noroeste 29 Noroeste 0 -- -- 55
2019-07-20 06:00:00 25.9 21 Noroeste 26 Noroeste 0 -- -- 58
2019-07-20 05:00:00 25.5 15 Noroeste 26 Noroeste 0 -- -- 56
2019-07-20 04:00:00 26.4 18 Noroeste 26 Noroeste 0 -- -- 54
2019-07-20 03:00:00 25.9 14 Noroeste 20 Noroeste 0 -- -- 56
2019-07-20 02:00:00 25.9 13 Noroeste 18 Noroeste 0 -- -- 62
2019-07-20 01:00:00 25.8 10 Noroeste 15 Norte 0 -- -- 71
2019-07-20 00:00:00 26.4 12 Norte 19 Norte 0 -- -- 77
2019-07-19 23:00:00 26.5 0 Calma 19 Nordeste 0 -- -- 79
2019-07-19 22:00:00 26.6 14 Nordeste 22 Nordeste 0 -- -- 78
2019-07-19 21:00:00 26.8 10 Norte 18 Nordeste 0 -- -- 77
2019-07-19 20:00:00 27 10 Norte 15 Norte 0 -- -- 77
2019-07-19 19:00:00 28.4 6 Nordeste 13 Nordeste 0 -- -- 68
2019-07-19 18:00:00 28.4 5 Norte 12 Nordeste 0 -- -- 65
2019-07-19 17:00:00 28.4 5 Nordeste 14 Nordeste 0 -- -- 68
2019-07-19 16:00:00 27.7 5 Este 13 Nordeste 0 -- -- 71
2019-07-19 15:00:00 27.7 13 Este 27 Este 0 -- -- 74
2019-07-19 14:00:00 27.4 18 Este 27 Este 0 -- -- 73
2019-07-19 13:00:00 28.2 14 Este 17 Este 0 -- -- 68
2019-07-19 12:00:00 27.8 13 Nordeste 17 Nordeste 0 -- -- 68
2019-07-19 11:00:00 28.1 10 Nordeste 15 Nordeste 0 -- -- 56
2019-07-19 10:00:00 26.6 9 Noroeste 17 Noroeste 0 -- -- 59
2019-07-19 09:00:00 23.8 11 Noroeste 16 Noroeste 0 -- -- 58
2019-07-19 08:00:00 21.7 15 Noroeste 19 Noroeste 0 -- -- 61
2019-07-19 07:00:00 21.9 14 Oeste 18 Oeste 0 -- -- 61
2019-07-19 06:00:00 22.1 13 Noroeste 17 Oeste 0 -- -- 63
2019-07-19 05:00:00 22.4 12 Oeste 16 Oeste 0 -- -- 68
2019-07-19 04:00:00 22.7 10 Oeste 17 Oeste 0 -- -- 75
2019-07-19 03:00:00 23.1 11 Oeste 14 Oeste 0 -- -- 75
2019-07-19 02:00:00 23.1 9 Noroeste 14 Noroeste 0 -- -- 85
2019-07-19 01:00:00 23.4 8 Noroeste 10 Noroeste 0 -- -- 87
2019-07-19 00:00:00 24.4 7 Noroeste 8 Oeste 0 -- -- 86